sensor_id;sensor_type;location;lat;lon;timestamp;temperature;humidity
38788;DHT22;24536;45.488;12.238;2023-04-01T00:00:54;14.40;93.20
38788;DHT22;24536;45.488;12.238;2023-04-01T00:03:22;14.40;93.30
38788;DHT22;24536;45.488;12.238;2023-04-01T00:05:48;14.40;93.30
38788;DHT22;24536;45.488;12.238;2023-04-01T00:08:14;14.40;93.30
38788;DHT22;24536;45.488;12.238;2023-04-01T00:10:40;14.40;93.30
38788;DHT22;24536;45.488;12.238;2023-04-01T00:13:06;14.40;93.30
38788;DHT22;24536;45.488;12.238;2023-04-01T00:15:32;14.40;93.30
38788;DHT22;24536;45.488;12.238;2023-04-01T00:17:58;14.40;93.30
38788;DHT22;24536;45.488;12.238;2023-04-01T00:20:24;14.40;93.50
38788;DHT22;24536;45.488;12.238;2023-04-01T00:22:50;14.30;93.50
38788;DHT22;24536;45.488;12.238;2023-04-01T00:25:16;14.30;93.70
38788;DHT22;24536;45.488;12.238;2023-04-01T00:27:42;14.20;93.60
38788;DHT22;24536;45.488;12.238;2023-04-01T00:30:09;14.20;93.70
38788;DHT22;24536;45.488;12.238;2023-04-01T00:32:34;14.20;93.80
38788;DHT22;24536;45.488;12.238;2023-04-01T00:35:01;14.10;93.70
38788;DHT22;24536;45.488;12.238;2023-04-01T00:37:28;14.10;93.80
38788;DHT22;24536;45.488;12.238;2023-04-01T00:39:53;14.10;94.00
38788;DHT22;24536;45.488;12.238;2023-04-01T00:42:19;14.10;93.90
38788;DHT22;24536;45.488;12.238;2023-04-01T00:44:50;14.10;94.00
38788;DHT22;24536;45.488;12.238;2023-04-01T00:47:16;14.00;94.20
38788;DHT22;24536;45.488;12.238;2023-04-01T00:49:46;13.90;93.90
38788;DHT22;24536;45.488;12.238;2023-04-01T00:52:17;13.90;93.90
38788;DHT22;24536;45.488;12.238;2023-04-01T00:54:44;13.80;94.10
38788;DHT22;24536;45.488;12.238;2023-04-01T00:57:31;13.80;94.00
38788;DHT22;24536;45.488;12.238;2023-04-01T00:59:58;13.80;94.10
38788;DHT22;24536;45.488;12.238;2023-04-01T01:02:25;13.70;94.40
38788;DHT22;24536;45.488;12.238;2023-04-01T01:04:51;13.60;94.40
38788;DHT22;24536;45.488;12.238;2023-04-01T01:10:17;13.60;94.50
38788;DHT22;24536;45.488;12.238;2023-04-01T01:12:55;13.60;94.20
38788;DHT22;24536;45.488;12.238;2023-04-01T01:15:33;13.60;94.20
38788;DHT22;24536;45.488;12.238;2023-04-01T01:18:53;13.60;94.40
38788;DHT22;24536;45.488;12.238;2023-04-01T01:21:21;13.60;94.40
38788;DHT22;24536;45.488;12.238;2023-04-01T01:27:07;13.60;94.30
38788;DHT22;24536;45.488;12.238;2023-04-01T01:35:52;13.50;94.30
38788;DHT22;24536;45.488;12.238;2023-04-01T01:38:23;15.80;94.90
38788;DHT22;24536;45.488;12.238;2023-04-01T01:40:51;13.50;94.30
38788;DHT22;24536;45.488;12.238;2023-04-01T01:43:22;13.50;94.30
38788;DHT22;24536;45.488;12.238;2023-04-01T01:45:54;13.50;94.10
38788;DHT22;24536;45.488;12.238;2023-04-01T01:48:20;13.40;94.20
38788;DHT22;24536;45.488;12.238;2023-04-01T01:50:48;13.40;94.30
38788;DHT22;24536;45.488;12.238;2023-04-01T01:53:14;13.40;94.20
38788;DHT22;24536;45.488;12.238;2023-04-01T01:55:42;13.40;94.20
38788;DHT22;24536;45.488;12.238;2023-04-01T02:00:57;13.40;94.20
38788;DHT22;24536;45.488;12.238;2023-04-01T02:03:26;13.40;93.90
38788;DHT22;24536;45.488;12.238;2023-04-01T02:05:56;13.30;94.10
38788;DHT22;24536;45.488;12.238;2023-04-01T02:08:32;13.30;94.00
38788;DHT22;24536;45.488;12.238;2023-04-01T02:11:03;13.20;94.00
38788;DHT22;24536;45.488;12.238;2023-04-01T02:16:00;13.20;93.80
38788;DHT22;24536;45.488;12.238;2023-04-01T02:18:28;13.10;93.80
38788;DHT22;24536;45.488;12.238;2023-04-01T02:20:57;13.10;93.80
38788;DHT22;24536;45.488;12.238;2023-04-01T02:23:24;13.10;93.80
38788;DHT22;24536;45.488;12.238;2023-04-01T02:25:51;13.10;93.80
38788;DHT22;24536;45.488;12.238;2023-04-01T02:28:18;13.20;93.70
38788;DHT22;24536;45.488;12.238;2023-04-01T02:30:46;13.10;93.60
38788;DHT22;24536;45.488;12.238;2023-04-01T02:33:13;13.10;93.60
38788;DHT22;24536;45.488;12.238;2023-04-01T02:35:39;13.10;93.70
38788;DHT22;24536;45.488;12.238;2023-04-01T02:38:06;13.10;93.80
38788;DHT22;24536;45.488;12.238;2023-04-01T02:40:48;13.10;93.80
38788;DHT22;24536;45.488;12.238;2023-04-01T02:43:15;13.10;93.80
38788;DHT22;24536;45.488;12.238;2023-04-01T02:45:42;13.00;93.50
38788;DHT22;24536;45.488;12.238;2023-04-01T02:48:08;13.00;93.70
38788;DHT22;24536;45.488;12.238;2023-04-01T02:50:33;13.00;93.70
38788;DHT22;24536;45.488;12.238;2023-04-01T02:53:00;13.00;93.70
38788;DHT22;24536;45.488;12.238;2023-04-01T02:55:26;13.00;93.70
38788;DHT22;24536;45.488;12.238;2023-04-01T02:57:52;13.00;93.60
38788;DHT22;24536;45.488;12.238;2023-04-01T03:00:17;13.00;93.60
38788;DHT22;24536;45.488;12.238;2023-04-01T03:02:43;13.10;93.50
38788;DHT22;24536;45.488;12.238;2023-04-01T03:05:09;13.00;93.40
38788;DHT22;24536;45.488;12.238;2023-04-01T03:07:35;13.00;93.30
38788;DHT22;24536;45.488;12.238;2023-04-01T03:10:01;13.00;93.40
38788;DHT22;24536;45.488;12.238;2023-04-01T03:12:27;13.00;93.20
38788;DHT22;24536;45.488;12.238;2023-04-01T03:14:52;13.00;93.30
38788;DHT22;24536;45.488;12.238;2023-04-01T03:17:18;13.00;93.10
38788;DHT22;24536;45.488;12.238;2023-04-01T03:19:43;13.00;93.30
38788;DHT22;24536;45.488;12.238;2023-04-01T03:22:12;12.90;93.40
38788;DHT22;24536;45.488;12.238;2023-04-01T03:24:38;12.90;93.40
38788;DHT22;24536;45.488;12.238;2023-04-01T03:27:03;12.90;93.30
38788;DHT22;24536;45.488;12.238;2023-04-01T03:29:29;12.90;93.30
38788;DHT22;24536;45.488;12.238;2023-04-01T03:31:55;12.90;93.30
38788;DHT22;24536;45.488;12.238;2023-04-01T03:34:23;12.90;93.40
38788;DHT22;24536;45.488;12.238;2023-04-01T03:36:49;12.90;93.20
38788;DHT22;24536;45.488;12.238;2023-04-01T03:39:15;12.80;93.10
38788;DHT22;24536;45.488;12.238;2023-04-01T03:41:44;12.80;93.20
38788;DHT22;24536;45.488;12.238;2023-04-01T03:44:10;12.80;93.10
38788;DHT22;24536;45.488;12.238;2023-04-01T03:46:36;12.80;93.30
38788;DHT22;24536;45.488;12.238;2023-04-01T03:49:02;12.70;93.30
38788;DHT22;24536;45.488;12.238;2023-04-01T03:51:28;12.80;93.30
38788;DHT22;24536;45.488;12.238;2023-04-01T03:53:54;12.80;93.10
38788;DHT22;24536;45.488;12.238;2023-04-01T03:56:19;12.80;93.10
38788;DHT22;24536;45.488;12.238;2023-04-01T03:58:45;12.80;93.10
38788;DHT22;24536;45.488;12.238;2023-04-01T04:01:19;12.70;93.00
38788;DHT22;24536;45.488;12.238;2023-04-01T04:03:49;12.70;93.00
38788;DHT22;24536;45.488;12.238;2023-04-01T04:06:16;12.70;93.10
38788;DHT22;24536;45.488;12.238;2023-04-01T04:08:42;12.60;92.90
38788;DHT22;24536;45.488;12.238;2023-04-01T04:11:08;12.70;93.10
38788;DHT22;24536;45.488;12.238;2023-04-01T04:13:34;12.70;93.10
38788;DHT22;24536;45.488;12.238;2023-04-01T04:16:01;12.70;93.00
38788;DHT22;24536;45.488;12.238;2023-04-01T04:18:27;12.70;92.90
38788;DHT22;24536;45.488;12.238;2023-04-01T04:20:53;12.70;92.90
38788;DHT22;24536;45.488;12.238;2023-04-01T04:23:19;12.70;93.00
38788;DHT22;24536;45.488;12.238;2023-04-01T04:26:02;12.60;93.10
38788;DHT22;24536;45.488;12.238;2023-04-01T04:28:29;12.50;93.00
38788;DHT22;24536;45.488;12.238;2023-04-01T04:30:55;12.50;93.20
38788;DHT22;24536;45.488;12.238;2023-04-01T04:33:21;12.50;93.10
38788;DHT22;24536;45.488;12.238;2023-04-01T04:35:47;12.50;93.20
38788;DHT22;24536;45.488;12.238;2023-04-01T04:38:13;12.40;93.20
38788;DHT22;24536;45.488;12.238;2023-04-01T04:40:40;12.50;93.00
38788;DHT22;24536;45.488;12.238;2023-04-01T04:43:06;12.50;92.90
38788;DHT22;24536;45.488;12.238;2023-04-01T04:45:32;12.40;93.10
38788;DHT22;24536;45.488;12.238;2023-04-01T04:47:58;12.30;93.10
38788;DHT22;24536;45.488;12.238;2023-04-01T04:50:24;12.30;93.30
38788;DHT22;24536;45.488;12.238;2023-04-01T04:52:50;12.30;93.00
38788;DHT22;24536;45.488;12.238;2023-04-01T04:55:15;12.30;93.10
38788;DHT22;24536;45.488;12.238;2023-04-01T04:57:41;12.30;93.10
38788;DHT22;24536;45.488;12.238;2023-04-01T05:00:08;12.30;93.00
38788;DHT22;24536;45.488;12.238;2023-04-01T05:02:35;12.30;93.20
38788;DHT22;24536;45.488;12.238;2023-04-01T05:05:01;12.30;93.10
38788;DHT22;24536;45.488;12.238;2023-04-01T05:07:27;12.20;93.10
38788;DHT22;24536;45.488;12.238;2023-04-01T05:09:52;12.20;93.20
38788;DHT22;24536;45.488;12.238;2023-04-01T05:12:18;12.10;93.20
38788;DHT22;24536;45.488;12.238;2023-04-01T05:14:44;12.20;93.40
38788;DHT22;24536;45.488;12.238;2023-04-01T05:17:12;12.20;93.40
38788;DHT22;24536;45.488;12.238;2023-04-01T05:19:38;12.20;93.40
38788;DHT22;24536;45.488;12.238;2023-04-01T05:22:05;12.30;93.20
38788;DHT22;24536;45.488;12.238;2023-04-01T05:24:32;12.30;93.10
38788;DHT22;24536;45.488;12.238;2023-04-01T05:26:58;12.30;93.10
38788;DHT22;24536;45.488;12.238;2023-04-01T05:29:25;12.30;93.00
38788;DHT22;24536;45.488;12.238;2023-04-01T05:31:51;12.30;93.00
38788;DHT22;24536;45.488;12.238;2023-04-01T05:34:16;12.30;93.00
38788;DHT22;24536;45.488;12.238;2023-04-01T05:36:43;12.20;92.80
38788;DHT22;24536;45.488;12.238;2023-04-01T05:39:08;12.20;93.00
38788;DHT22;24536;45.488;12.238;2023-04-01T05:41:38;12.20;92.80
38788;DHT22;24536;45.488;12.238;2023-04-01T05:46:31;12.20;92.90
38788;DHT22;24536;45.488;12.238;2023-04-01T05:48:57;12.20;92.90
38788;DHT22;24536;45.488;12.238;2023-04-01T05:51:23;12.30;93.10
38788;DHT22;24536;45.488;12.238;2023-04-01T05:53:48;12.40;93.10
38788;DHT22;24536;45.488;12.238;2023-04-01T05:56:15;12.30;93.10
38788;DHT22;24536;45.488;12.238;2023-04-01T05:58:40;12.40;93.00
38788;DHT22;24536;45.488;12.238;2023-04-01T06:01:09;12.40;92.90
38788;DHT22;24536;45.488;12.238;2023-04-01T06:03:35;12.50;92.80
38788;DHT22;24536;45.488;12.238;2023-04-01T06:06:01;12.40;92.80
38788;DHT22;24536;45.488;12.238;2023-04-01T06:08:28;12.50;92.90
38788;DHT22;24536;45.488;12.238;2023-04-01T06:11:07;12.50;92.70
38788;DHT22;24536;45.488;12.238;2023-04-01T06:14:07;12.60;92.60
38788;DHT22;24536;45.488;12.238;2023-04-01T06:19:54;12.70;92.80
38788;DHT22;24536;45.488;12.238;2023-04-01T06:30:45;12.90;92.90
38788;DHT22;24536;45.488;12.238;2023-04-01T06:33:50;13.00;93.00
38788;DHT22;24536;45.488;12.238;2023-04-01T06:42:43;13.20;92.40
38788;DHT22;24536;45.488;12.238;2023-04-01T06:47:46;13.30;92.10
38788;DHT22;24536;45.488;12.238;2023-04-01T06:56:13;13.50;92.10
38788;DHT22;24536;45.488;12.238;2023-04-01T06:58:46;13.60;91.80
38788;DHT22;24536;45.488;12.238;2023-04-01T07:01:34;13.60;92.00
38788;DHT22;24536;45.488;12.238;2023-04-01T07:07:02;13.80;91.20
38788;DHT22;24536;45.488;12.238;2023-04-01T07:09:38;13.90;91.10
38788;DHT22;24536;45.488;12.238;2023-04-01T07:12:12;13.90;91.30
38788;DHT22;24536;45.488;12.238;2023-04-01T07:14:41;13.90;90.90
38788;DHT22;24536;45.488;12.238;2023-04-01T07:17:17;14.00;90.90
38788;DHT22;24536;45.488;12.238;2023-04-01T07:19:58;14.00;90.40
38788;DHT22;24536;45.488;12.238;2023-04-01T07:22:33;14.00;89.60
38788;DHT22;24536;45.488;12.238;2023-04-01T07:25:24;14.00;90.40
38788;DHT22;24536;45.488;12.238;2023-04-01T07:27:56;14.10;90.50
38788;DHT22;24536;45.488;12.238;2023-04-01T07:30:28;14.10;89.60
38788;DHT22;24536;45.488;12.238;2023-04-01T07:35:52;14.30;89.20
38788;DHT22;24536;45.488;12.238;2023-04-01T07:44:28;14.90;92.30
38788;DHT22;24536;45.488;12.238;2023-04-01T07:50:06;15.40;91.00
38788;DHT22;24536;45.488;12.238;2023-04-01T07:52:43;15.40;89.60
38788;DHT22;24536;45.488;12.238;2023-04-01T08:03:36;15.60;87.00
38788;DHT22;24536;45.488;12.238;2023-04-01T08:14:12;15.80;86.10
38788;DHT22;24536;45.488;12.238;2023-04-01T08:17:12;15.80;86.50
38788;DHT22;24536;45.488;12.238;2023-04-01T08:25:03;16.00;85.40
38788;DHT22;24536;45.488;12.238;2023-04-01T08:27:37;16.00;85.90
38788;DHT22;24536;45.488;12.238;2023-04-01T08:30:42;16.20;85.70
38788;DHT22;24536;45.488;12.238;2023-04-01T08:33:23;16.40;85.30
38788;DHT22;24536;45.488;12.238;2023-04-01T08:36:07;16.50;84.50
38788;DHT22;24536;45.488;12.238;2023-04-01T08:46:50;16.70;83.00
38788;DHT22;24536;45.488;12.238;2023-04-01T09:07:27;17.50;81.30
38788;DHT22;24536;45.488;12.238;2023-04-01T09:15:34;17.90;79.60
38788;DHT22;24536;45.488;12.238;2023-04-01T09:39:36;18.80;75.80
38788;DHT22;24536;45.488;12.238;2023-04-01T09:42:41;19.00;75.80
38788;DHT22;24536;45.488;12.238;2023-04-01T09:50:57;19.80;75.30
38788;DHT22;24536;45.488;12.238;2023-04-01T09:53:28;20.00;74.20
38788;DHT22;24536;45.488;12.238;2023-04-01T10:04:17;19.80;71.90
38788;DHT22;24536;45.488;12.238;2023-04-01T10:12:34;20.30;70.50
38788;DHT22;24536;45.488;12.238;2023-04-01T10:24:05;20.80;71.50
38788;DHT22;24536;45.488;12.238;2023-04-01T10:29:40;21.30;71.10
38788;DHT22;24536;45.488;12.238;2023-04-01T10:41:18;21.90;69.90
38788;DHT22;24536;45.488;12.238;2023-04-01T10:43:48;22.10;68.10
38788;DHT22;24536;45.488;12.238;2023-04-01T10:49:33;22.40;68.80
38788;DHT22;24536;45.488;12.238;2023-04-01T11:25:29;23.80;64.00
38788;DHT22;24536;45.488;12.238;2023-04-01T11:40:08;24.80;63.20
38788;DHT22;24536;45.488;12.238;2023-04-01T11:45:36;27.50;58.40
38788;DHT22;24536;45.488;12.238;2023-04-01T11:53:52;30.50;51.50
38788;DHT22;24536;45.488;12.238;2023-04-01T12:04:41;32.20;46.00
38788;DHT22;24536;45.488;12.238;2023-04-01T12:07:34;32.10;46.00
38788;DHT22;24536;45.488;12.238;2023-04-01T12:18:41;32.10;45.00
38788;DHT22;24536;45.488;12.238;2023-04-01T12:21:34;31.80;44.50
38788;DHT22;24536;45.488;12.238;2023-04-01T12:27:10;31.30;45.60
38788;DHT22;24536;45.488;12.238;2023-04-01T12:30:32;31.20;45.80
38788;DHT22;24536;45.488;12.238;2023-04-01T12:38:24;31.00;44.70
38788;DHT22;24536;45.488;12.238;2023-04-01T12:44:23;31.40;44.70
38788;DHT22;24536;45.488;12.238;2023-04-01T12:55:42;32.50;42.10
38788;DHT22;24536;45.488;12.238;2023-04-01T13:35:49;25.60;48.70
38788;DHT22;24536;45.488;12.238;2023-04-01T13:43:25;24.10;51.40
38788;DHT22;24536;45.488;12.238;2023-04-01T13:59:52;23.20;54.40
38788;DHT22;24536;45.488;12.238;2023-04-01T14:06:02;22.80;54.70
38788;DHT22;24536;45.488;12.238;2023-04-01T14:23:07;22.30;56.30
38788;DHT22;24536;45.488;12.238;2023-04-01T14:34:34;21.90;57.00
38788;DHT22;24536;45.488;12.238;2023-04-01T14:37:23;21.80;56.50
38788;DHT22;24536;45.488;12.238;2023-04-01T14:40:34;21.70;57.00
38788;DHT22;24536;45.488;12.238;2023-04-01T14:43:28;21.70;57.30
38788;DHT22;24536;45.488;12.238;2023-04-01T14:49:02;21.40;57.80
38788;DHT22;24536;45.488;12.238;2023-04-01T14:51:36;21.30;58.30
38788;DHT22;24536;45.488;12.238;2023-04-01T14:56:42;21.10;58.50
38788;DHT22;24536;45.488;12.238;2023-04-01T15:30:20;20.20;63.40
38788;DHT22;24536;45.488;12.238;2023-04-01T15:33:20;20.20;63.80
38788;DHT22;24536;45.488;12.238;2023-04-01T15:38:45;20.20;62.90
38788;DHT22;24536;45.488;12.238;2023-04-01T15:41:24;20.20;63.30
38788;DHT22;24536;45.488;12.238;2023-04-01T15:43:55;20.10;63.50
38788;DHT22;24536;45.488;12.238;2023-04-01T15:46:36;20.10;63.80
38788;DHT22;24536;45.488;12.238;2023-04-01T15:49:39;20.00;63.40
38788;DHT22;24536;45.488;12.238;2023-04-01T16:03:02;19.90;65.00
38788;DHT22;24536;45.488;12.238;2023-04-01T16:06:01;19.90;65.00
38788;DHT22;24536;45.488;12.238;2023-04-01T16:17:17;19.80;66.00
38788;DHT22;24536;45.488;12.238;2023-04-01T16:22:39;19.70;67.20
38788;DHT22;24536;45.488;12.238;2023-04-01T16:25:32;19.60;67.60
38788;DHT22;24536;45.488;12.238;2023-04-01T16:36:42;19.60;68.60
38788;DHT22;24536;45.488;12.238;2023-04-01T16:47:32;19.40;69.00
38788;DHT22;24536;45.488;12.238;2023-04-01T16:55:49;19.30;70.20
38788;DHT22;24536;45.488;12.238;2023-04-01T16:58:26;19.20;70.60
38788;DHT22;24536;45.488;12.238;2023-04-01T17:03:46;19.20;71.20
38788;DHT22;24536;45.488;12.238;2023-04-01T17:09:34;19.10;71.00
38788;DHT22;24536;45.488;12.238;2023-04-01T17:14:42;18.90;71.00
38788;DHT22;24536;45.488;12.238;2023-04-01T17:27:52;18.70;72.70
38788;DHT22;24536;45.488;12.238;2023-04-01T17:30:34;18.60;72.60
38788;DHT22;24536;45.488;12.238;2023-04-01T17:35:58;18.40;73.20
38788;DHT22;24536;45.488;12.238;2023-04-01T17:39:29;18.40;73.80
38788;DHT22;24536;45.488;12.238;2023-04-01T17:41:54;18.30;74.20
38788;DHT22;24536;45.488;12.238;2023-04-01T17:44:58;18.30;74.30
38788;DHT22;24536;45.488;12.238;2023-04-01T17:47:36;18.30;74.50
38788;DHT22;24536;45.488;12.238;2023-04-01T17:53:45;18.10;75.00
38788;DHT22;24536;45.488;12.238;2023-04-01T17:59:02;18.00;76.30
38788;DHT22;24536;45.488;12.238;2023-04-01T18:01:44;18.00;77.00
38788;DHT22;24536;45.488;12.238;2023-04-01T18:24:32;17.60;81.60
38788;DHT22;24536;45.488;12.238;2023-04-01T18:27:18;17.60;82.10
38788;DHT22;24536;45.488;12.238;2023-04-01T18:29:55;17.50;82.10
38788;DHT22;24536;45.488;12.238;2023-04-01T18:38:37;17.50;82.40
38788;DHT22;24536;45.488;12.238;2023-04-01T18:52:28;17.40;83.00
38788;DHT22;24536;45.488;12.238;2023-04-01T18:57:53;17.40;83.40
38788;DHT22;24536;45.488;12.238;2023-04-01T19:00:32;17.40;83.50
38788;DHT22;24536;45.488;12.238;2023-04-01T19:05:31;17.40;84.00
38788;DHT22;24536;45.488;12.238;2023-04-01T19:08:28;17.30;84.50
38788;DHT22;24536;45.488;12.238;2023-04-01T19:11:17;17.40;84.10
38788;DHT22;24536;45.488;12.238;2023-04-01T19:13:57;17.30;84.50
38788;DHT22;24536;45.488;12.238;2023-04-01T19:16:48;17.80;84.20
38788;DHT22;24536;45.488;12.238;2023-04-01T19:35:42;17.20;82.90
38788;DHT22;24536;45.488;12.238;2023-04-01T19:46:36;17.10;82.30
38788;DHT22;24536;45.488;12.238;2023-04-01T19:49:28;17.20;82.10
38788;DHT22;24536;45.488;12.238;2023-04-01T19:52:37;17.20;82.00
38788;DHT22;24536;45.488;12.238;2023-04-01T20:01:04;17.10;81.90
38788;DHT22;24536;45.488;12.238;2023-04-01T20:03:58;17.20;82.00
38788;DHT22;24536;45.488;12.238;2023-04-01T20:07:27;17.20;82.00
38788;DHT22;24536;45.488;12.238;2023-04-01T20:09:55;17.20;82.20
38788;DHT22;24536;45.488;12.238;2023-04-01T20:15:35;17.20;82.10
38788;DHT22;24536;45.488;12.238;2023-04-01T20:18:26;17.20;82.60
38788;DHT22;24536;45.488;12.238;2023-04-01T20:21:03;17.20;82.30
38788;DHT22;24536;45.488;12.238;2023-04-01T20:23:53;17.20;82.50
38788;DHT22;24536;45.488;12.238;2023-04-01T20:26:33;17.10;82.40
38788;DHT22;24536;45.488;12.238;2023-04-01T20:34:26;17.10;82.80
38788;DHT22;24536;45.488;12.238;2023-04-01T20:47:55;17.00;83.50
38788;DHT22;24536;45.488;12.238;2023-04-01T20:50:46;17.10;83.70
38788;DHT22;24536;45.488;12.238;2023-04-01T20:58:56;17.00;84.30
38788;DHT22;24536;45.488;12.238;2023-04-01T21:01:34;17.00;85.00
38788;DHT22;24536;45.488;12.238;2023-04-01T21:04:12;16.80;85.30
38788;DHT22;24536;45.488;12.238;2023-04-01T21:09:36;16.60;85.30
38788;DHT22;24536;45.488;12.238;2023-04-01T21:20:23;16.50;86.10
38788;DHT22;24536;45.488;12.238;2023-04-01T21:46:43;16.00;88.30
38788;DHT22;24536;45.488;12.238;2023-04-01T22:00:17;15.90;89.30
38788;DHT22;24536;45.488;12.238;2023-04-01T22:05:28;15.90;89.80
38788;DHT22;24536;45.488;12.238;2023-04-01T22:14:27;15.80;89.90
38788;DHT22;24536;45.488;12.238;2023-04-01T22:19:20;15.70;89.50
38788;DHT22;24536;45.488;12.238;2023-04-01T22:21:57;15.70;89.60
38788;DHT22;24536;45.488;12.238;2023-04-01T22:32:46;15.50;90.00
38788;DHT22;24536;45.488;12.238;2023-04-01T22:35:33;15.50;90.20
38788;DHT22;24536;45.488;12.238;2023-04-01T22:38:17;15.40;90.30
38788;DHT22;24536;45.488;12.238;2023-04-01T22:49:24;15.40;90.20
38788;DHT22;24536;45.488;12.238;2023-04-01T22:51:54;15.40;90.30
38788;DHT22;24536;45.488;12.238;2023-04-01T22:54:37;15.40;90.30
38788;DHT22;24536;45.488;12.238;2023-04-01T22:57:04;15.40;90.50
38788;DHT22;24536;45.488;12.238;2023-04-01T22:59:56;15.40;90.50
38788;DHT22;24536;45.488;12.238;2023-04-01T23:02:33;15.40;90.20
38788;DHT22;24536;45.488;12.238;2023-04-01T23:05:03;15.40;90.40
38788;DHT22;24536;45.488;12.238;2023-04-01T23:07:41;14.90;90.30
38788;DHT22;24536;45.488;12.238;2023-04-01T23:12:54;15.40;90.30
38788;DHT22;24536;45.488;12.238;2023-04-01T23:15:21;15.30;90.40
38788;DHT22;24536;45.488;12.238;2023-04-01T23:28:54;15.20;90.70
38788;DHT22;24536;45.488;12.238;2023-04-01T23:31:54;15.30;90.70
38788;DHT22;24536;45.488;12.238;2023-04-01T23:36:44;15.30;90.80
38788;DHT22;24536;45.488;12.238;2023-04-01T23:39:26;15.20;90.70
38788;DHT22;24536;45.488;12.238;2023-04-01T23:41:58;15.20;90.60
38788;DHT22;24536;45.488;12.238;2023-04-01T23:44:25;15.20;91.10
38788;DHT22;24536;45.488;12.238;2023-04-01T23:46:53;15.10;90.70
38788;DHT22;24536;45.488;12.238;2023-04-01T23:49:34;15.10;90.90
38788;DHT22;24536;45.488;12.238;2023-04-01T23:52:17;15.10;90.90
38788;DHT22;24536;45.488;12.238;2023-04-01T23:57:18;15.10;90.90
